Time;durP1;ratioP1;P1;durP2;ratioP2;P2;SDS_P1;SDS_P2;PMS_P1;PMS_P2;Temp;Humidity;BMP_temperature;BMP_pressure;BME280_temperature;BME280_humidity;BME280_pressure;Samples;Min_cycle;Max_cycle;Signal;HPM_P1;HPM_P2
2023/05/16 00:02:01;;;;;;;17.25;3.63;;;10.00;94.30;;;;;;6183032;22;92532;-75
2023/05/16 00:04:27;;;;;;;26.80;3.78;;;10.00;94.50;;;;;;6184056;22;93537;-75
2023/05/16 00:06:53;;;;;;;24.27;4.35;;;9.90;93.90;;;;;;6182114;22;92942;-75
2023/05/16 00:09:19;;;;;;;28.42;5.25;;;9.90;94.10;;;;;;6167105;22;94982;-75
2023/05/16 00:11:47;;;;;;;15.30;3.35;;;9.90;94.50;;;;;;6183036;22;91482;-74
2023/05/16 00:14:13;;;;;;;30.88;5.22;;;9.90;93.60;;;;;;6183103;22;92495;-75
2023/05/16 00:16:40;;;;;;;14.70;3.88;;;9.90;93.80;;;;;;6156888;22;94211;-75
2023/05/16 00:19:06;;;;;;;24.63;3.85;;;9.90;94.00;;;;;;6181865;22;93421;-74
2023/05/16 00:21:32;;;;;;;18.23;4.18;;;9.90;94.00;;;;;;6182814;22;92200;-75
2023/05/16 00:23:57;;;;;;;18.35;3.47;;;9.90;93.90;;;;;;6182500;22;93955;-75
2023/05/16 00:26:23;;;;;;;20.70;4.30;;;9.90;93.50;;;;;;6182941;22;93275;-75
2023/05/16 00:28:48;;;;;;;17.48;3.85;;;9.80;93.50;;;;;;6182876;22;92495;-75
2023/05/16 00:31:14;;;;;;;21.48;3.78;;;9.80;93.40;;;;;;6183488;22;92398;-75
2023/05/16 00:33:40;;;;;;;17.27;3.40;;;9.80;93.50;;;;;;6180972;22;95509;-75
2023/05/16 00:36:06;;;;;;;23.45;4.85;;;9.80;93.40;;;;;;6155171;22;94947;-75
2023/05/16 00:38:31;;;;;;;30.75;4.28;;;9.80;93.30;;;;;;6182818;22;92703;-75
2023/05/16 00:40:57;;;;;;;20.38;4.82;;;9.80;93.50;;;;;;6182644;22;92513;-74
2023/05/16 00:43:23;;;;;;;17.38;3.75;;;9.80;92.80;;;;;;6182804;22;93530;-75
2023/05/16 00:45:48;;;;;;;17.92;3.38;;;9.80;93.50;;;;;;6182337;22;94246;-75
2023/05/16 00:48:15;;;;;;;22.10;4.22;;;9.70;92.80;;;;;;6183398;22;92399;-75
2023/05/16 00:50:41;;;;;;;26.55;4.10;;;9.70;93.00;;;;;;6182414;22;92465;-75
2023/05/16 00:53:06;;;;;;;19.90;3.13;;;9.70;92.80;;;;;;6181750;22;93634;-75
2023/05/16 00:55:32;;;;;;;24.77;3.60;;;9.70;93.40;;;;;;6182518;22;93616;-75
2023/05/16 00:57:58;;;;;;;18.08;3.50;;;9.70;92.40;;;;;;6183320;22;92131;-75
2023/05/16 01:00:25;;;;;;;20.25;3.20;;;9.70;93.00;;;;;;6182585;22;91951;-75
2023/05/16 01:02:52;;;;;;;25.30;4.30;;;9.70;92.80;;;;;;6182183;22;93565;-75
2023/05/16 01:05:18;;;;;;;24.23;3.88;;;9.70;92.60;;;;;;6182163;22;93380;-75
2023/05/16 01:07:44;;;;;;;20.20;4.32;;;9.60;92.80;;;;;;6183405;22;93396;-75
2023/05/16 01:10:10;;;;;;;18.50;3.92;;;9.60;92.80;;;;;;6180842;22;92662;-75
2023/05/16 01:13:12;;;;;;;18.23;3.75;;;9.60;92.30;;;;;;6182075;22;93740;-75
2023/05/16 01:15:49;;;;;;;20.95;3.00;;;9.60;92.60;;;;;;6115364;22;93812;-74
2023/05/16 01:18:42;;;;;;;14.65;2.65;;;9.60;92.40;;;;;;6182471;22;92515;-75
2023/05/16 01:21:17;;;;;;;18.00;2.90;;;9.50;93.20;;;;;;6181979;22;92465;-75
2023/05/16 01:23:43;;;;;;;21.20;4.22;;;9.60;92.60;;;;;;6181140;22;93684;-75
2023/05/16 01:26:21;;;;;;;21.92;3.30;;;9.50;93.00;;;;;;6182535;22;93363;-75
2023/05/16 01:28:49;;;;;;;25.30;3.85;;;9.50;92.50;;;;;;6183619;22;92463;-75
2023/05/16 01:31:15;;;;;;;23.42;3.35;;;9.50;92.20;;;;;;6182873;22;92505;-75
2023/05/16 01:33:41;;;;;;;28.13;4.05;;;9.40;92.70;;;;;;6181540;22;94358;-75
2023/05/16 01:36:34;;;;;;;23.38;3.58;;;9.30;92.50;;;;;;6182994;22;94286;-75
2023/05/16 01:39:25;;;;;;;27.17;3.30;;;9.30;92.90;;;;;;6183725;22;92349;-74
2023/05/16 01:42:02;;;;;;;20.50;3.08;;;9.30;92.70;;;;;;6183743;22;92243;-75
2023/05/16 01:44:35;;;;;;;21.92;3.35;;;9.20;92.70;;;;;;6182808;22;94282;-75
2023/05/16 01:47:05;;;;;;;19.42;2.47;;;9.20;93.70;;;;;;6183475;22;92940;-75
2023/05/16 01:49:35;;;;;;;15.82;3.35;;;9.20;93.40;;;;;;6184584;22;92520;-75
2023/05/16 01:52:12;;;;;;;18.35;3.00;;;9.20;93.20;;;;;;6184668;22;91847;-75
2023/05/16 01:54:43;;;;;;;23.38;3.22;;;9.20;93.50;;;;;;6183305;22;96554;-75
2023/05/16 01:57:11;;;;;;;25.73;3.28;;;9.20;93.20;;;;;;6183427;22;92900;-75
2023/05/16 01:59:38;;;;;;;20.13;2.50;;;9.20;93.00;;;;;;6183492;22;93371;-75
2023/05/16 02:02:04;;;;;;;16.85;3.08;;;9.10;93.00;;;;;;6184031;22;92364;-74
2023/05/16 02:04:30;;;;;;;21.23;2.92;;;9.10;92.70;;;;;;6184146;22;92541;-75
2023/05/16 02:06:56;;;;;;;23.38;2.50;;;9.10;93.40;;;;;;6183559;22;93612;-75
2023/05/16 02:09:22;;;;;;;16.73;3.00;;;9.10;92.50;;;;;;6183758;22;92387;-74
2023/05/16 02:11:47;;;;;;;20.45;2.75;;;9.10;92.70;;;;;;6183342;22;92516;-74
2023/05/16 02:14:13;;;;;;;21.73;2.83;;;9.10;93.20;;;;;;6182675;22;93521;-74
2023/05/16 02:16:39;;;;;;;19.88;2.58;;;9.00;92.50;;;;;;6184438;22;92775;-75
2023/05/16 02:19:04;;;;;;;17.40;2.35;;;9.00;92.80;;;;;;6183893;22;92543;-74
2023/05/16 02:21:30;;;;;;;17.58;3.30;;;9.00;93.30;;;;;;6182743;22;92573;-75
2023/05/16 02:23:56;;;;;;;18.95;2.42;;;9.00;92.20;;;;;;6182176;22;94682;-75
2023/05/16 02:26:21;;;;;;;13.68;2.15;;;9.00;92.30;;;;;;6182921;22;94731;-74
2023/05/16 02:28:50;;;;;;;21.50;2.85;;;8.90;92.70;;;;;;6184487;22;92098;-74
2023/05/16 02:31:35;;;;;;;21.80;2.78;;;8.90;92.80;;;;;;6182138;22;94281;-75
2023/05/16 02:34:01;;;;;;;21.75;2.78;;;8.90;92.50;;;;;;6183167;22;94164;-75
2023/05/16 02:36:27;;;;;;;15.55;2.25;;;8.80;92.50;;;;;;6182929;22;92935;-75
2023/05/16 02:38:53;;;;;;;15.63;2.33;;;8.80;92.70;;;;;;6183832;22;92472;-74
2023/05/16 02:41:20;;;;;;;20.20;2.92;;;8.70;93.20;;;;;;6181816;22;91728;-75
2023/05/16 02:43:47;;;;;;;18.38;2.50;;;8.70;92.70;;;;;;6183552;22;93298;-75
2023/05/16 02:46:29;;;;;;;14.98;2.33;;;8.60;93.10;;;;;;6182837;22;93279;-74
2023/05/16 02:48:56;;;;;;;16.30;2.15;;;8.50;92.90;;;;;;6182745;22;93331;-74
2023/05/16 02:51:23;;;;;;;15.05;2.40;;;8.40;92.80;;;;;;6183469;22;92210;-75
2023/05/16 02:53:49;;;;;;;21.00;2.10;;;8.40;93.00;;;;;;6183076;22;93190;-74
2023/05/16 02:56:15;;;;;;;18.52;2.40;;;8.30;93.00;;;;;;6182683;22;92968;-74
2023/05/16 02:58:41;;;;;;;19.58;2.28;;;8.20;93.10;;;;;;6184714;22;92707;-75
2023/05/16 03:01:07;;;;;;;22.38;2.97;;;8.20;93.80;;;;;;6183052;22;92066;-75
2023/05/16 03:03:34;;;;;;;18.52;2.72;;;8.10;93.60;;;;;;6182591;22;93550;-75
2023/05/16 03:06:00;;;;;;;19.40;2.20;;;8.00;93.40;;;;;;6181677;22;96303;-75
2023/05/16 03:08:26;;;;;;;28.17;3.33;;;8.00;93.30;;;;;;6182904;22;92230;-74
2023/05/16 03:10:52;;;;;;;16.80;2.83;;;8.00;93.60;;;;;;6182699;22;92657;-74
2023/05/16 03:13:17;;;;;;;20.02;2.00;;;7.90;94.00;;;;;;6182382;22;94549;-75
2023/05/16 03:15:43;;;;;;;19.73;2.50;;;7.80;93.60;;;;;;6182429;22;95004;-75
2023/05/16 03:18:10;;;;;;;15.70;2.60;;;7.80;93.80;;;;;;6183708;22;92885;-75
2023/05/16 03:20:36;;;;;;;14.27;2.03;;;7.70;94.00;;;;;;6181635;22;92549;-75
2023/05/16 03:23:02;;;;;;;17.13;2.13;;;7.70;94.20;;;;;;6182641;22;93180;-75
2023/05/16 03:25:28;;;;;;;13.73;2.55;;;7.60;93.90;;;;;;6181610;22;96583;-75
2023/05/16 03:27:53;;;;;;;22.05;2.15;;;7.60;94.00;;;;;;6182196;22;92431;-74
2023/05/16 03:30:19;;;;;;;18.00;2.15;;;7.50;94.00;;;;;;6183587;22;91721;-75
2023/05/16 03:32:45;;;;;;;15.52;2.45;;;7.50;94.20;;;;;;6182796;22;94104;-75
2023/05/16 03:35:11;;;;;;;18.40;3.35;;;7.40;94.30;;;;;;6182138;22;93413;-74
2023/05/16 03:37:38;;;;;;;19.75;2.28;;;7.30;94.20;;;;;;6183479;22;93344;-75
2023/05/16 03:40:04;;;;;;;15.25;4.10;;;7.30;94.40;;;;;;6183046;22;92581;-75
2023/05/16 03:42:31;;;;;;;19.67;2.80;;;7.30;94.40;;;;;;6182548;22;93177;-74
2023/05/16 03:44:57;;;;;;;19.92;2.45;;;7.30;94.70;;;;;;6182339;22;93289;-75
2023/05/16 03:47:23;;;;;;;12.55;2.42;;;7.20;94.50;;;;;;6182552;22;92195;-75
2023/05/16 03:49:48;;;;;;;15.75;3.22;;;7.20;94.60;;;;;;6183928;22;92357;-75
2023/05/16 03:52:14;;;;;;;14.88;2.78;;;7.20;94.60;;;;;;6181037;22;102520;-75
2023/05/16 03:54:39;;;;;;;15.18;2.63;;;7.20;94.60;;;;;;6182744;22;93381;-75
2023/05/16 03:57:05;;;;;;;12.65;4.05;;;7.20;94.70;;;;;;6182772;22;92681;-75
2023/05/16 03:59:31;;;;;;;18.80;3.17;;;7.20;94.80;;;;;;6182907;22;92533;-75
2023/05/16 04:01:56;;;;;;;13.80;2.92;;;7.10;94.80;;;;;;6155102;22;97833;-75
2023/05/16 04:04:22;;;;;;;16.00;2.65;;;7.10;94.90;;;;;;6183166;22;93921;-75
2023/05/16 04:06:48;;;;;;;21.27;3.20;;;7.20;95.00;;;;;;6182976;22;93497;-75
2023/05/16 04:09:13;;;;;;;22.38;3.75;;;7.20;95.00;;;;;;6182290;22;92719;-75
2023/05/16 04:11:39;;;;;;;18.65;3.38;;;7.20;95.10;;;;;;6180763;22;95493;-75
2023/05/16 04:14:05;;;;;;;21.48;3.13;;;7.20;95.20;;;;;;6182100;22;92404;-74
2023/05/16 04:16:30;;;;;;;23.10;3.58;;;7.20;95.30;;;;;;6181491;22;92478;-74
2023/05/16 04:18:56;;;;;;;15.85;2.95;;;7.20;95.30;;;;;;6183040;22;91841;-75
2023/05/16 04:21:22;;;;;;;22.95;3.60;;;7.20;95.20;;;;;;6182297;22;93245;-74
2023/05/16 04:23:47;;;;;;;19.25;3.30;;;7.30;95.10;;;;;;6182689;22;93076;-75
2023/05/16 04:26:13;;;;;;;18.20;3.75;;;7.30;95.20;;;;;;6182674;22;93435;-75
2023/05/16 04:28:40;;;;;;;20.42;3.58;;;7.30;95.10;;;;;;6183615;22;92298;-75
2023/05/16 04:31:06;;;;;;;18.40;3.70;;;7.30;95.20;;;;;;6182381;22;93948;-75
2023/05/16 04:33:32;;;;;;;22.98;3.53;;;7.30;95.00;;;;;;6181823;22;93225;-75
2023/05/16 04:35:59;;;;;;;14.73;3.92;;;7.30;95.00;;;;;;6182469;22;92554;-75
2023/05/16 04:38:25;;;;;;;15.00;4.15;;;7.30;95.00;;;;;;6167731;22;92451;-75
2023/05/16 04:40:51;;;;;;;18.88;4.25;;;7.30;95.00;;;;;;6181133;22;93239;-75
2023/05/16 04:43:17;;;;;;;21.30;3.83;;;7.30;95.10;;;;;;6182439;22;93364;-75
2023/05/16 04:45:43;;;;;;;24.02;4.15;;;7.30;95.20;;;;;;6181866;22;92941;-75
2023/05/16 04:48:10;;;;;;;23.55;3.88;;;7.30;95.10;;;;;;6181729;22;92496;-75
2023/05/16 04:50:36;;;;;;;16.38;4.10;;;7.30;95.10;;;;;;6181475;22;93845;-75
2023/05/16 04:53:02;;;;;;;25.23;4.88;;;7.30;95.00;;;;;;6182317;22;94686;-75
2023/05/16 04:55:28;;;;;;;28.38;4.45;;;7.30;95.00;;;;;;6183529;22;92367;-75
2023/05/16 04:57:53;;;;;;;24.50;3.80;;;7.30;95.00;;;;;;6181682;22;92621;-75
2023/05/16 05:00:19;;;;;;;20.00;3.45;;;7.40;95.00;;;;;;6181992;22;93713;-75
2023/05/16 05:02:45;;;;;;;19.95;3.88;;;7.30;95.00;;;;;;6182205;22;93427;-75
2023/05/16 05:05:11;;;;;;;15.10;3.50;;;7.30;95.00;;;;;;6182867;22;92467;-77
2023/05/16 05:07:37;;;;;;;22.45;4.47;;;7.30;95.00;;;;;;6184005;22;91802;-75
2023/05/16 05:10:03;;;;;;;14.75;3.75;;;7.30;95.20;;;;;;6183472;22;92954;-74
2023/05/16 05:12:28;;;;;;;22.45;5.22;;;7.40;95.20;;;;;;6183034;22;93692;-74
2023/05/16 05:14:54;;;;;;;12.95;3.80;;;7.40;95.10;;;;;;6182902;22;93343;-75
2023/05/16 05:17:21;;;;;;;16.40;4.00;;;7.40;95.00;;;;;;6183948;22;92470;-75
2023/05/16 05:19:47;;;;;;;25.00;4.30;;;7.40;94.90;;;;;;6184906;22;93484;-75
2023/05/16 05:22:13;;;;;;;18.55;3.40;;;7.40;95.00;;;;;;6184654;22;92416;-75
2023/05/16 05:24:39;;;;;;;14.05;3.30;;;7.40;95.10;;;;;;6182297;22;92904;-75
2023/05/16 05:27:05;;;;;;;15.85;4.13;;;7.40;95.20;;;;;;6180380;22;92698;-75
2023/05/16 05:29:31;;;;;;;27.45;5.22;;;7.40;95.10;;;;;;6179471;22;93193;-74
2023/05/16 05:31:56;;;;;;;18.95;3.72;;;7.40;95.20;;;;;;6179314;22;92793;-74
2023/05/16 05:34:22;;;;;;;21.80;4.20;;;7.50;95.20;;;;;;6181740;22;92569;-74
2023/05/16 05:36:48;;;;;;;22.05;4.80;;;7.50;95.10;;;;;;6181906;22;92718;-74
2023/05/16 05:39:13;;;;;;;20.00;3.95;;;7.60;95.40;;;;;;6181093;22;96204;-75
2023/05/16 05:41:39;;;;;;;19.63;4.07;;;7.60;95.00;;;;;;6182890;22;92942;-75
2023/05/16 05:44:05;;;;;;;18.17;4.97;;;7.70;95.00;;;;;;6183241;22;92261;-75
2023/05/16 05:46:32;;;;;;;24.30;5.43;;;7.80;94.70;;;;;;6182545;22;92893;-75
2023/05/16 05:48:58;;;;;;;23.45;4.15;;;7.90;94.80;;;;;;6182651;22;93469;-75
2023/05/16 05:51:24;;;;;;;23.40;4.78;;;7.90;94.40;;;;;;6183231;22;92795;-75
2023/05/16 05:53:51;;;;;;;21.08;5.07;;;8.10;94.60;;;;;;6183633;22;92478;-75
2023/05/16 05:56:17;;;;;;;21.98;4.30;;;8.20;94.30;;;;;;6183690;22;91680;-75
2023/05/16 05:58:43;;;;;;;19.70;4.07;;;8.20;94.20;;;;;;6183557;22;93531;-75
2023/05/16 06:01:10;;;;;;;17.23;4.55;;;8.30;94.30;;;;;;6183058;22;93225;-76
2023/05/16 06:03:36;;;;;;;29.23;5.28;;;8.40;94.10;;;;;;6183339;22;93501;-77
2023/05/16 06:06:09;;;;;;;21.00;4.10;;;8.50;94.20;;;;;;6184009;22;92885;-81
2023/05/16 06:08:35;;;;;;;28.38;4.00;;;8.60;93.60;;;;;;6184092;22;92696;-79
2023/05/16 06:11:01;;;;;;;20.38;4.32;;;8.70;93.50;;;;;;6183440;22;93333;-77
2023/05/16 06:13:26;;;;;;;24.23;4.40;;;8.80;93.30;;;;;;6185838;22;92486;-76
2023/05/16 06:15:53;;;;;;;31.20;4.75;;;8.90;93.40;;;;;;6155702;22;92717;-77
2023/05/16 06:18:20;;;;;;;28.38;4.28;;;9.00;93.00;;;;;;6182501;22;93657;-77
2023/05/16 06:20:46;;;;;;;15.68;3.30;;;9.20;93.60;;;;;;6182786;22;93067;-76
2023/05/16 06:23:11;;;;;;;13.63;2.35;;;9.30;92.10;;;;;;6183552;22;92551;-76
2023/05/16 06:25:37;;;;;;;19.40;3.05;;;9.40;92.80;;;;;;6157917;22;92312;-75
2023/05/16 06:28:03;;;;;;;10.00;1.85;;;9.50;92.40;;;;;;6155166;22;97409;-77
2023/05/16 06:30:29;;;;;;;12.07;2.20;;;9.50;89.90;;;;;;6183196;22;94915;-77
2023/05/16 06:32:55;;;;;;;17.45;2.30;;;9.70;90.30;;;;;;6184279;22;92096;-77
2023/05/16 06:35:20;;;;;;;12.82;2.08;;;9.70;90.60;;;;;;6183200;22;92292;-77
2023/05/16 06:37:46;;;;;;;13.07;2.17;;;9.80;90.60;;;;;;6184471;22;93610;-77
2023/05/16 06:40:12;;;;;;;12.95;2.17;;;9.90;88.40;;;;;;6183855;22;93772;-77
2023/05/16 06:42:38;;;;;;;12.73;1.55;;;9.90;90.10;;;;;;6183851;22;92796;-78
2023/05/16 06:45:04;;;;;;;20.00;2.05;;;10.10;90.10;;;;;;6181474;22;91775;-78
2023/05/16 06:47:30;;;;;;;15.38;2.45;;;10.30;90.20;;;;;;6183650;22;93487;-77
2023/05/16 06:49:56;;;;;;;16.70;1.80;;;10.30;88.40;;;;;;6183488;22;93225;-78
2023/05/16 06:52:21;;;;;;;17.30;1.88;;;10.40;87.90;;;;;;6184260;22;93565;-79
2023/05/16 06:54:47;;;;;;;12.38;2.35;;;10.50;86.30;;;;;;6183633;22;92554;-79
2023/05/16 06:57:14;;;;;;;16.90;1.38;;;10.60;85.50;;;;;;6183349;22;94589;-78
2023/05/16 06:59:40;;;;;;;13.10;1.80;;;10.70;87.30;;;;;;6181526;22;96313;-78
2023/05/16 07:02:06;;;;;;;13.88;1.80;;;10.80;85.10;;;;;;6182223;22;92556;-78
2023/05/16 07:04:33;;;;;;;7.43;1.77;;;10.80;85.30;;;;;;6184199;22;92271;-79
2023/05/16 07:07:01;;;;;;;14.82;1.80;;;10.90;86.30;;;;;;6180511;22;97033;-78
2023/05/16 07:09:26;;;;;;;11.02;2.00;;;10.90;87.10;;;;;;6167485;22;92291;-78
2023/05/16 07:11:52;;;;;;;13.65;1.73;;;11.00;84.60;;;;;;6182534;22;92659;-78
2023/05/16 07:14:18;;;;;;;8.75;1.50;;;11.10;83.90;;;;;;6155539;22;92790;-79
2023/05/16 07:16:43;;;;;;;13.32;2.25;;;11.20;83.40;;;;;;6183342;22;94591;-78
2023/05/16 07:19:09;;;;;;;13.95;1.48;;;11.30;83.00;;;;;;6181993;22;94303;-78
2023/05/16 07:21:35;;;;;;;12.38;2.00;;;11.40;79.20;;;;;;6182950;22;92396;-78
2023/05/16 07:24:00;;;;;;;9.70;1.63;;;11.60;79.80;;;;;;6182877;22;92380;-78
2023/05/16 07:26:26;;;;;;;10.23;2.10;;;11.80;81.40;;;;;;6183199;22;92766;-78
2023/05/16 07:28:52;;;;;;;12.80;1.50;;;12.00;76.90;;;;;;6182872;22;93299;-78
2023/05/16 07:31:18;;;;;;;9.15;1.40;;;12.10;77.70;;;;;;6157891;22;92649;-78
2023/05/16 07:33:47;;;;;;;10.68;1.27;;;12.30;73.60;;;;;;6157338;22;91890;-78
2023/05/16 07:36:13;;;;;;;7.78;1.23;;;12.30;76.40;;;;;;6182910;22;93604;-78
2023/05/16 07:38:39;;;;;;;12.77;1.60;;;12.40;73.00;;;;;;6183294;22;93637;-78
2023/05/16 07:41:05;;;;;;;13.05;1.92;;;12.50;70.50;;;;;;6182706;22;93234;-78
2023/05/16 07:43:31;;;;;;;10.48;2.17;;;12.70;73.60;;;;;;6157020;22;92573;-78
2023/05/16 07:45:56;;;;;;;13.73;2.10;;;12.80;68.10;;;;;;6156968;22;94803;-78
2023/05/16 07:48:22;;;;;;;7.72;1.88;;;12.80;67.80;;;;;;6180693;22;94643;-78
2023/05/16 07:50:48;;;;;;;10.32;1.65;;;12.70;70.60;;;;;;6183416;22;92132;-78
2023/05/16 07:53:13;;;;;;;11.20;2.20;;;12.60;69.90;;;;;;6183842;22;92049;-79
2023/05/16 07:55:39;;;;;;;11.13;1.70;;;12.50;71.90;;;;;;6184244;22;93857;-79
2023/05/16 07:58:05;;;;;;;7.70;1.23;;;12.50;73.50;;;;;;6183456;22;93282;-79
2023/05/16 08:00:30;;;;;;;8.10;1.50;;;12.50;71.10;;;;;;6182893;22;92082;-79
2023/05/16 08:02:56;;;;;;;9.90;1.65;;;12.30;69.40;;;;;;6183953;22;92368;-79
2023/05/16 08:05:23;;;;;;;9.80;1.90;;;12.30;74.30;;;;;;6187132;22;94748;-80
2023/05/16 08:07:51;;;;;;;13.20;1.92;;;12.40;71.50;;;;;;6186309;22;94939;-80
2023/05/16 08:10:17;;;;;;;8.90;1.55;;;12.60;71.00;;;;;;6182783;22;92168;-80
2023/05/16 08:12:42;;;;;;;8.82;2.97;;;12.70;69.70;;;;;;6183316;22;92146;-80
2023/05/16 08:15:09;;;;;;;7.60;1.67;;;12.90;68.40;;;;;;6183756;22;93632;-81
2023/05/16 08:17:34;;;;;;;12.20;1.63;;;13.10;69.30;;;;;;6184542;22;93346;-80
2023/05/16 08:20:00;;;;;;;6.55;0.88;;;13.30;66.40;;;;;;6184502;22;92376;-80
2023/05/16 08:22:26;;;;;;;4.35;0.90;;;13.30;66.20;;;;;;6183631;22;91961;-80
2023/05/16 08:24:56;;;;;;;7.47;1.27;;;13.40;65.50;;;;;;6183278;22;92210;-80
2023/05/16 08:27:28;;;;;;;9.10;1.02;;;13.50;64.30;;;;;;6181930;22;94748;-79
2023/05/16 08:29:53;;;;;;;5.65;0.70;;;13.60;65.00;;;;;;6183087;22;93477;-80
2023/05/16 08:32:20;;;;;;;5.47;1.13;;;13.90;63.50;;;;;;6183371;22;92408;-80
2023/05/16 08:34:45;;;;;;;7.65;0.80;;;14.10;60.90;;;;;;6185948;22;93503;-80
2023/05/16 08:37:11;;;;;;;4.65;0.98;;;14.50;62.30;;;;;;6182721;22;93326;-80
2023/05/16 08:39:40;;;;;;;4.90;1.15;;;14.80;65.00;;;;;;6183524;22;92489;-80
2023/05/16 08:42:06;;;;;;;27.20;2.92;;;15.10;58.70;;;;;;6183654;22;92457;-80
2023/05/16 08:44:33;;;;;;;6.28;1.20;;;15.40;59.60;;;;;;6168589;22;96447;-80
2023/05/16 08:47:09;;;;;;;5.72;0.70;;;15.40;57.50;;;;;;6184989;22;97465;-80
2023/05/16 08:49:38;;;;;;;6.50;1.00;;;15.30;56.90;;;;;;6184855;22;92268;-80
2023/05/16 08:52:07;;;;;;;4.68;1.38;;;15.50;57.40;;;;;;6183645;22;92144;-80
2023/05/16 08:54:33;;;;;;;6.05;1.13;;;15.60;59.50;;;;;;6155630;22;98040;-80
2023/05/16 08:57:00;;;;;;;8.70;1.08;;;15.90;61.00;;;;;;6183502;22;93338;-80
2023/05/16 08:59:26;;;;;;;3.97;0.98;;;15.90;57.60;;;;;;6184615;22;92644;-80
2023/05/16 09:01:52;;;;;;;7.43;1.08;;;16.00;57.80;;;;;;6183682;22;92148;-81
2023/05/16 09:04:18;;;;;;;9.88;1.40;;;16.20;53.80;;;;;;6184340;22;92654;-81
2023/05/16 09:06:44;;;;;;;7.25;1.05;;;15.70;55.50;;;;;;6183905;22;92346;-78
2023/05/16 09:09:11;;;;;;;7.32;0.93;;;15.50;57.20;;;;;;6183024;22;92627;-79
2023/05/16 09:11:38;;;;;;;6.40;0.90;;;15.30;57.10;;;;;;6156810;22;91819;-79
2023/05/16 09:14:06;;;;;;;7.13;1.33;;;15.40;61.00;;;;;;6154745;22;96554;-79
2023/05/16 09:16:32;;;;;;;6.30;1.08;;;15.30;58.10;;;;;;6184023;22;93557;-79
2023/05/16 09:19:00;;;;;;;7.60;1.10;;;15.00;59.80;;;;;;6183635;22;93244;-80
2023/05/16 09:21:31;;;;;;;6.72;1.00;;;14.90;60.80;;;;;;6184449;22;92467;-78
2023/05/16 09:24:08;;;;;;;7.35;1.02;;;15.00;60.70;;;;;;6183159;22;93543;-78
2023/05/16 09:26:35;;;;;;;5.57;1.23;;;15.30;59.10;;;;;;6182090;22;94920;-78
2023/05/16 09:29:01;;;;;;;9.77;1.30;;;15.30;61.90;;;;;;6182496;22;92361;-78
2023/05/16 09:31:36;;;;;;;5.97;1.38;;;15.40;60.90;;;;;;6184007;22;92670;-78
2023/05/16 09:34:03;;;;;;;6.82;1.25;;;15.70;61.10;;;;;;6180367;22;96315;-78
2023/05/16 09:36:31;;;;;;;9.90;1.20;;;15.90;60.50;;;;;;6182706;22;92187;-79
2023/05/16 09:38:56;;;;;;;10.82;1.33;;;16.10;61.00;;;;;;6182922;22;92506;-79
2023/05/16 09:41:22;;;;;;;4.38;1.10;;;16.00;55.10;;;;;;6182749;22;92280;-79
2023/05/16 09:43:48;;;;;;;5.80;0.80;;;15.80;60.30;;;;;;6182772;22;94497;-79
2023/05/16 09:46:14;;;;;;;7.53;1.00;;;15.70;58.90;;;;;;6182430;22;93285;-80
2023/05/16 09:48:45;;;;;;;7.30;0.75;;;16.00;57.20;;;;;;6182764;22;92496;-86
2023/05/16 09:51:11;;;;;;;7.07;0.70;;;16.50;56.20;;;;;;6154968;22;92468;-76
2023/05/16 09:53:38;;;;;;;5.65;1.05;;;16.90;57.70;;;;;;6181447;22;93599;-76
2023/05/16 09:56:06;;;;;;;7.57;1.25;;;17.30;55.00;;;;;;6182258;22;93797;-80
2023/05/16 09:58:33;;;;;;;7.30;1.10;;;16.80;53.90;;;;;;6183244;22;92311;-77
2023/05/16 10:01:01;;;;;;;3.50;0.70;;;16.60;57.30;;;;;;6184536;22;91619;-80
2023/05/16 10:03:27;;;;;;;3.25;0.60;;;16.60;56.40;;;;;;6157031;22;96349;-79
2023/05/16 10:05:54;;;;;;;5.72;0.80;;;16.50;53.60;;;;;;6183711;22;93093;-79
2023/05/16 10:08:21;;;;;;;6.55;0.80;;;16.30;57.00;;;;;;6183031;22;93572;-80
2023/05/16 10:10:50;;;;;;;7.25;0.73;;;16.10;55.70;;;;;;6185662;22;92400;-82
2023/05/16 10:13:18;;;;;;;7.38;0.90;;;16.10;53.90;;;;;;6185079;22;97850;-77
2023/05/16 10:15:45;;;;;;;3.28;0.50;;;16.20;53.00;;;;;;6184081;22;92786;-82
2023/05/16 10:18:13;;;;;;;7.10;1.02;;;16.40;53.10;;;;;;6157425;22;92694;-79
2023/05/16 10:20:43;;;;;;;3.88;0.80;;;16.20;52.70;;;;;;6154656;22;92557;-80
2023/05/16 10:23:14;;;;;;;6.18;1.00;;;16.10;58.30;;;;;;6182356;22;96880;-79
2023/05/16 10:25:41;;;;;;;6.00;0.80;;;16.40;57.00;;;;;;6184180;22;93168;-79
2023/05/16 10:28:08;;;;;;;5.20;0.75;;;16.90;57.80;;;;;;6183534;22;92547;-84
2023/05/16 10:30:34;;;;;;;5.30;0.80;;;17.00;52.50;;;;;;6183761;22;92532;-84
2023/05/16 10:33:03;;;;;;;6.38;1.00;;;16.80;52.40;;;;;;6181217;22;96424;-85
2023/05/16 10:35:31;;;;;;;3.00;0.88;;;16.70;53.80;;;;;;6183756;22;93914;-80
2023/05/16 10:37:58;;;;;;;7.93;1.00;;;16.60;55.80;;;;;;6157997;22;92496;-86
2023/05/16 10:40:24;;;;;;;6.38;1.42;;;16.80;55.10;;;;;;6158830;22;92692;-87
2023/05/16 10:43:01;;;;;;;6.18;0.93;;;17.10;54.70;;;;;;6157245;22;96329;-87
2023/05/16 10:45:27;;;;;;;4.03;0.90;;;17.60;53.40;;;;;;6156648;22;95048;-84
2023/05/16 10:47:58;;;;;;;3.75;0.80;;;18.20;54.90;;;;;;6157839;22;92648;-88
2023/05/16 10:50:37;;;;;;;6.35;1.17;;;18.80;54.30;;;;;;6157334;22;91821;-87
2023/05/16 10:53:13;;;;;;;8.27;1.17;;;19.10;52.20;;;;;;6157720;22;97193;-87
2023/05/16 10:55:39;;;;;;;4.03;0.73;;;18.70;50.60;;;;;;6158599;22;95945;-87
2023/05/16 10:58:06;;;;;;;6.10;1.33;;;18.70;51.20;;;;;;6157658;22;93585;-85
2023/05/16 11:00:32;;;;;;;5.28;0.88;;;19.10;53.70;;;;;;6182685;22;92643;-84
2023/05/16 11:03:05;;;;;;;3.38;1.13;;;19.40;51.20;;;;;;6157117;22;96103;-83
2023/05/16 11:05:31;;;;;;;2.73;0.60;;;19.60;50.90;;;;;;6157320;22;95635;-83
2023/05/16 11:08:05;;;;;;;6.80;0.70;;;19.40;46.50;;;;;;6157766;22;92445;-83
2023/05/16 11:10:32;;;;;;;6.40;1.08;;;19.00;53.60;;;;;;6185682;22;92510;-81
2023/05/16 11:13:06;;;;;;;8.52;0.82;;;18.80;52.70;;;;;;6156840;22;96100;-84
2023/05/16 11:15:33;;;;;;;3.70;0.68;;;18.40;52.10;;;;;;6184758;22;93028;-85
2023/05/16 11:18:09;;;;;;;6.65;0.80;;;18.10;46.50;;;;;;6182530;22;92309;-86
2023/05/16 11:20:37;;;;;;;5.43;0.60;;;17.90;50.00;;;;;;6158189;22;92350;-86
2023/05/16 11:23:18;;;;;;;8.73;1.20;;;17.80;52.90;;;;;;6156914;22;96951;-86
2023/05/16 11:25:45;;;;;;;5.43;0.88;;;17.60;52.90;;;;;;6157771;22;96194;-86
2023/05/16 11:28:13;;;;;;;5.70;0.68;;;17.50;52.80;;;;;;6157500;22;92771;-85
2023/05/16 11:30:48;;;;;;;3.60;0.55;;;17.40;52.80;;;;;;6157461;22;92940;-86
2023/05/16 11:33:15;;;;;;;4.70;0.70;;;17.60;53.50;;;;;;6157029;22;96230;-85
2023/05/16 11:35:41;;;;;;;5.30;0.68;;;18.20;53.80;;;;;;6183967;22;92702;-80
2023/05/16 11:38:17;;;;;;;4.47;0.73;;;19.00;51.90;;;;;;6157478;22;92435;-88
2023/05/16 11:40:43;;;;;;;4.78;1.05;;;19.70;51.60;;;;;;6158936;22;92725;-81
2023/05/16 11:43:10;;;;;;;5.45;0.95;;;20.30;49.20;;;;;;6156529;22;96467;-82
2023/05/16 11:45:36;;;;;;;4.32;0.60;;;20.60;50.20;;;;;;6156586;22;96163;-82
2023/05/16 11:48:03;;;;;;;4.07;0.65;;;20.70;49.70;;;;;;6156447;22;93595;-82
2023/05/16 11:50:29;;;;;;;4.55;1.05;;;20.80;47.40;;;;;;6183559;22;92415;-81
2023/05/16 11:52:56;;;;;;;4.07;0.35;;;20.60;47.60;;;;;;6183462;22;93582;-80
2023/05/16 11:55:28;;;;;;;2.72;0.80;;;20.60;48.00;;;;;;6157714;22;94441;-83
2023/05/16 11:57:56;;;;;;;2.87;0.60;;;20.40;45.00;;;;;;6158161;22;92643;-80
2023/05/16 12:00:25;;;;;;;2.83;0.50;;;20.70;46.50;;;;;;6183552;22;92440;-81
2023/05/16 12:02:51;;;;;;;1.88;0.50;;;21.00;44.00;;;;;;6183299;22;92692;-81
2023/05/16 12:05:24;;;;;;;3.50;0.85;;;21.00;41.50;;;;;;6183696;22;91904;-82
2023/05/16 12:07:53;;;;;;;6.83;1.20;;;21.00;44.40;;;;;;6157071;22;92153;-81
2023/05/16 12:10:19;;;;;;;7.05;0.57;;;21.50;46.20;;;;;;6157892;22;92524;-79
2023/05/16 12:12:47;;;;;;;8.05;0.88;;;21.40;41.40;;;;;;6181470;22;93336;-79
2023/05/16 12:15:14;;;;;;;4.10;0.60;;;20.70;44.90;;;;;;6180444;22;94927;-78
2023/05/16 12:17:40;;;;;;;2.80;0.70;;;19.90;44.60;;;;;;6155970;22;92536;-80
2023/05/16 12:20:13;;;;;;;5.20;1.08;;;19.50;46.10;;;;;;6183623;22;92438;-81
2023/05/16 12:22:43;;;;;;;6.20;0.77;;;19.90;45.00;;;;;;6157008;22;95746;-80
2023/05/16 12:25:29;;;;;;;4.93;1.00;;;20.60;47.10;;;;;;6183032;22;94748;-80
2023/05/16 12:27:57;;;;;;;3.47;0.73;;;20.60;43.30;;;;;;6151322;22;92642;-78
2023/05/16 12:30:23;;;;;;;2.53;0.70;;;20.10;44.30;;;;;;6178027;22;91936;-78
2023/05/16 12:33:10;;;;;;;3.30;0.73;;;20.20;45.70;;;;;;6150987;22;95475;-77
2023/05/16 12:35:54;;;;;;;5.68;0.90;;;20.70;44.90;;;;;;6177345;22;93337;-77
2023/05/16 12:38:20;;;;;;;3.78;0.77;;;21.00;45.30;;;;;;6181519;22;93530;-77
2023/05/16 12:40:47;;;;;;;6.00;1.52;;;21.20;42.50;;;;;;6183714;22;92782;-77
2023/05/16 12:43:14;;;;;;;3.92;0.93;;;21.20;42.30;;;;;;6155793;22;96317;-76
2023/05/16 12:45:40;;;;;;;2.88;1.15;;;20.70;43.30;;;;;;6183071;22;92903;-76
2023/05/16 12:48:15;;;;;;;4.63;0.75;;;20.30;41.00;;;;;;6182673;22;92596;-76